sensor_id;sensor_type;location;lat;lon;timestamp;P1;P2;P0
55076;PMS7003;40971;44.702;11.030;2023-10-09T00:03:31;26.33;26.33;19.00
55076;PMS7003;40971;44.702;11.030;2023-10-09T00:13:36;29.56;28.44;19.44
55076;PMS7003;40971;44.702;11.030;2023-10-09T00:23:41;34.44;34.11;23.33
55076;PMS7003;40971;44.702;11.030;2023-10-09T00:33:45;31.75;31.00;21.63
55076;PMS7003;40971;44.702;11.030;2023-10-09T00:43:48;28.67;27.00;18.33
55076;PMS7003;40971;44.702;11.030;2023-10-09T00:53:55;31.00;29.67;19.00
55076;PMS7003;40971;44.702;11.030;2023-10-09T01:04:08;25.80;25.20;19.80
55076;PMS7003;40971;44.702;11.030;2023-10-09T01:14:19;29.33;28.00;18.67
55076;PMS7003;40971;44.702;11.030;2023-10-09T01:24:22;26.00;26.00;16.00
55076;PMS7003;40971;44.702;11.030;2023-10-09T01:34:30;26.50;25.50;17.00
55076;PMS7003;40971;44.702;11.030;2023-10-09T01:44:40;26.00;23.33;16.33
55076;PMS7003;40971;44.702;11.030;2023-10-09T01:54:46;26.33;24.00;16.67
55076;PMS7003;40971;44.702;11.030;2023-10-09T02:14:54;25.00;22.00;15.00
55076;PMS7003;40971;44.702;11.030;2023-10-09T02:24:57;29.50;27.00;15.00
55076;PMS7003;40971;44.702;11.030;2023-10-09T02:35:00;19.00;17.60;11.40
55076;PMS7003;40971;44.702;11.030;2023-10-09T02:45:21;19.60;19.60;14.40
55076;PMS7003;40971;44.702;11.030;2023-10-09T02:55:30;25.20;22.80;15.80
55076;PMS7003;40971;44.702;11.030;2023-10-09T03:05:32;20.67;18.33;15.33
55076;PMS7003;40971;44.702;11.030;2023-10-09T03:15:34;24.00;20.80;13.40
55076;PMS7003;40971;44.702;11.030;2023-10-09T03:25:37;24.20;20.20;13.00
55076;PMS7003;40971;44.702;11.030;2023-10-09T03:35:39;24.80;19.40;14.20
55076;PMS7003;40971;44.702;11.030;2023-10-09T03:45:40;20.00;19.67;13.33
55076;PMS7003;40971;44.702;11.030;2023-10-09T03:55:55;18.00;18.00;13.00
55076;PMS7003;40971;44.702;11.030;2023-10-09T04:05:56;21.33;17.67;13.67
55076;PMS7003;40971;44.702;11.030;2023-10-09T04:15:57;15.50;15.50;17.00
55076;PMS7003;40971;44.702;11.030;2023-10-09T04:26:01;10.83;10.83;8.67
55076;PMS7003;40971;44.702;11.030;2023-10-09T04:36:12;13.40;11.40;9.00
55076;PMS7003;40971;44.702;11.030;2023-10-09T04:46:22;13.00;13.00;7.00
55076;PMS7003;40971;44.702;11.030;2023-10-09T04:56:25;9.67;9.67;7.00
55076;PMS7003;40971;44.702;11.030;2023-10-09T05:06:33;12.67;11.00;9.00
55076;PMS7003;40971;44.702;11.030;2023-10-09T05:16:44;9.83;9.67;7.67
55076;PMS7003;40971;44.702;11.030;2023-10-09T05:26:56;9.33;9.17;6.00
55076;PMS7003;40971;44.702;11.030;2023-10-09T05:37:19;9.00;9.00;5.67
55076;PMS7003;40971;44.702;11.030;2023-10-09T05:47:27;8.50;8.50;5.50
55076;PMS7003;40971;44.702;11.030;2023-10-09T05:57:29;14.00;11.00;6.60
55076;PMS7003;40971;44.702;11.030;2023-10-09T06:07:55;14.86;13.43;8.57
55076;PMS7003;40971;44.702;11.030;2023-10-09T06:18:09;13.17;11.83;8.00
55076;PMS7003;40971;44.702;11.030;2023-10-09T06:28:33;11.00;11.00;8.00
55076;PMS7003;40971;44.702;11.030;2023-10-09T06:38:36;14.00;12.71;6.29
55076;PMS7003;40971;44.702;11.030;2023-10-09T06:49:16;11.60;11.60;7.40
55076;PMS7003;40971;44.702;11.030;2023-10-09T06:59:30;13.00;12.00;9.00
55076;PMS7003;40971;44.702;11.030;2023-10-09T07:09:52;14.33;14.00;8.00
55076;PMS7003;40971;44.702;11.030;2023-10-09T07:20:13;9.67;9.17;7.00
55076;PMS7003;40971;44.702;11.030;2023-10-09T07:30:17;10.50;9.00;5.00
55076;PMS7003;40971;44.702;11.030;2023-10-09T07:40:34;9.00;9.00;7.00
55076;PMS7003;40971;44.702;11.030;2023-10-09T07:50:56;11.00;9.00;4.50
55076;PMS7003;40971;44.702;11.030;2023-10-09T08:01:02;6.00;6.00;4.67
55076;PMS7003;40971;44.702;11.030;2023-10-09T08:11:18;10.83;7.17;6.00
55076;PMS7003;40971;44.702;11.030;2023-10-09T08:21:37;7.50;6.50;5.00
55076;PMS7003;40971;44.702;11.030;2023-10-09T08:32:01;6.83;6.83;5.00
55076;PMS7003;40971;44.702;11.030;2023-10-09T08:42:20;7.50;5.83;4.83
55076;PMS7003;40971;44.702;11.030;2023-10-09T08:52:26;4.83;4.83;4.33
55076;PMS7003;40971;44.702;11.030;2023-10-09T09:02:28;7.80;6.60;5.20
55076;PMS7003;40971;44.702;11.030;2023-10-09T09:12:29;9.00;8.00;5.00
55076;PMS7003;40971;44.702;11.030;2023-10-09T09:22:51;6.17;6.17;5.17
55076;PMS7003;40971;44.702;11.030;2023-10-09T09:32:59;8.50;7.00;5.00
55076;PMS7003;40971;44.702;11.030;2023-10-09T09:43:23;5.67;5.67;4.00
55076;PMS7003;40971;44.702;11.030;2023-10-09T09:53:28;6.33;6.33;4.17
55076;PMS7003;40971;44.702;11.030;2023-10-09T10:03:36;8.50;6.00;4.50
55076;PMS7003;40971;44.702;11.030;2023-10-09T10:23:48;9.00;9.00;5.00
55076;PMS7003;40971;44.702;11.030;2023-10-09T10:43:55;8.00;8.00;5.00
55076;PMS7003;40971;44.702;11.030;2023-10-09T10:54:01;9.17;6.83;4.67
55076;PMS7003;40971;44.702;11.030;2023-10-09T11:04:22;6.50;5.00;4.00
55076;PMS7003;40971;44.702;11.030;2023-10-09T11:14:30;7.00;7.00;4.00
55076;PMS7003;40971;44.702;11.030;2023-10-09T11:24:44;7.33;7.33;4.33
55076;PMS7003;40971;44.702;11.030;2023-10-09T11:35:09;6.00;5.50;4.00
55076;PMS7003;40971;44.702;11.030;2023-10-09T11:45:22;7.50;6.50;5.00
55076;PMS7003;40971;44.702;11.030;2023-10-09T11:55:25;5.00;5.00;3.00
55076;PMS7003;40971;44.702;11.030;2023-10-09T12:05:26;5.00;5.00;3.00
55076;PMS7003;40971;44.702;11.030;2023-10-09T12:15:28;5.00;5.00;3.00
55076;PMS7003;40971;44.702;11.030;2023-10-09T12:25:38;9.67;7.67;4.00
55076;PMS7003;40971;44.702;11.030;2023-10-09T12:35:39;7.00;7.00;5.00
55076;PMS7003;40971;44.702;11.030;2023-10-09T12:45:41;6.00;5.00;3.50
55076;PMS7003;40971;44.702;11.030;2023-10-09T12:55:43;8.50;7.50;5.00
55076;PMS7003;40971;44.702;11.030;2023-10-09T13:15:52;6.50;6.50;4.50
55076;PMS7003;40971;44.702;11.030;2023-10-09T13:25:54;8.20;7.80;5.00
55076;PMS7003;40971;44.702;11.030;2023-10-09T13:35:55;8.00;8.00;5.50
55076;PMS7003;40971;44.702;11.030;2023-10-09T13:45:57;6.67;5.67;4.67
55076;PMS7003;40971;44.702;11.030;2023-10-09T13:55:58;7.33;7.00;5.00
55076;PMS7003;40971;44.702;11.030;2023-10-09T14:05:59;5.50;5.50;4.00
55076;PMS7003;40971;44.702;11.030;2023-10-09T14:16:10;4.50;4.00;3.50
55076;PMS7003;40971;44.702;11.030;2023-10-09T14:26:24;8.00;7.00;4.00
55076;PMS7003;40971;44.702;11.030;2023-10-09T14:36:29;5.80;5.60;4.00
55076;PMS7003;40971;44.702;11.030;2023-10-09T14:46:34;7.00;7.00;5.00
55076;PMS7003;40971;44.702;11.030;2023-10-09T14:56:36;7.40;7.20;5.20
55076;PMS7003;40971;44.702;11.030;2023-10-09T15:06:38;6.00;6.00;5.00
55076;PMS7003;40971;44.702;11.030;2023-10-09T15:16:39;7.67;6.33;3.67
55076;PMS7003;40971;44.702;11.030;2023-10-09T15:26:40;7.00;7.00;5.00
55076;PMS7003;40971;44.702;11.030;2023-10-09T15:36:41;6.67;6.67;4.67
55076;PMS7003;40971;44.702;11.030;2023-10-09T15:46:43;6.50;6.00;4.50
55076;PMS7003;40971;44.702;11.030;2023-10-09T15:56:45;5.50;5.50;3.50
55076;PMS7003;40971;44.702;11.030;2023-10-09T16:06:47;5.00;5.00;4.00
55076;PMS7003;40971;44.702;11.030;2023-10-09T16:16:48;8.00;8.00;5.33
55076;PMS7003;40971;44.702;11.030;2023-10-09T16:26:50;7.00;6.00;5.00
55076;PMS7003;40971;44.702;11.030;2023-10-09T16:36:55;7.00;7.00;5.00
55076;PMS7003;40971;44.702;11.030;2023-10-09T16:46:56;11.67;8.67;6.67
55076;PMS7003;40971;44.702;11.030;2023-10-09T16:56:59;10.67;10.00;7.33
55076;PMS7003;40971;44.702;11.030;2023-10-09T17:07:02;11.33;9.67;6.00
55076;PMS7003;40971;44.702;11.030;2023-10-09T17:17:06;12.00;10.00;8.33
55076;PMS7003;40971;44.702;11.030;2023-10-09T17:27:09;13.80;10.00;7.40
55076;PMS7003;40971;44.702;11.030;2023-10-09T17:37:10;15.33;14.00;9.00
55076;PMS7003;40971;44.702;11.030;2023-10-09T17:47:12;9.00;9.00;7.00
55076;PMS7003;40971;44.702;11.030;2023-10-09T17:57:15;12.57;11.86;9.14
55076;PMS7003;40971;44.702;11.030;2023-10-09T18:07:16;13.33;13.33;10.00
55076;PMS7003;40971;44.702;11.030;2023-10-09T18:17:19;17.00;15.50;9.50
55076;PMS7003;40971;44.702;11.030;2023-10-09T18:27:22;12.33;12.33;9.00
55076;PMS7003;40971;44.702;11.030;2023-10-09T18:37:24;12.67;12.33;8.00
55076;PMS7003;40971;44.702;11.030;2023-10-09T18:47:26;12.67;10.33;7.33
55076;PMS7003;40971;44.702;11.030;2023-10-09T18:57:29;14.67;13.00;9.67
55076;PMS7003;40971;44.702;11.030;2023-10-09T19:07:32;14.67;11.33;8.33
55076;PMS7003;40971;44.702;11.030;2023-10-09T19:17:35;14.33;12.50;9.17
55076;PMS7003;40971;44.702;11.030;2023-10-09T19:27:37;15.00;14.00;10.00
55076;PMS7003;40971;44.702;11.030;2023-10-09T19:37:39;13.20;13.20;9.80
55076;PMS7003;40971;44.702;11.030;2023-10-09T19:47:43;11.00;11.00;8.00
55076;PMS7003;40971;44.702;11.030;2023-10-09T19:57:44;11.67;11.67;9.00
55076;PMS7003;40971;44.702;11.030;2023-10-09T20:07:45;12.67;11.33;9.00
55076;PMS7003;40971;44.702;11.030;2023-10-09T20:17:49;15.57;14.43;10.29
55076;PMS7003;40971;44.702;11.030;2023-10-09T20:27:52;13.29;13.00;9.00
55076;PMS7003;40971;44.702;11.030;2023-10-09T20:37:56;16.63;14.88;9.75
55076;PMS7003;40971;44.702;11.030;2023-10-09T20:48:03;19.67;18.33;9.67
55076;PMS7003;40971;44.702;11.030;2023-10-09T20:58:06;22.00;20.80;14.00
55076;PMS7003;40971;44.702;11.030;2023-10-09T21:08:10;23.00;19.40;13.60
55076;PMS7003;40971;44.702;11.030;2023-10-09T21:18:14;27.13;23.88;16.75
55076;PMS7003;40971;44.702;11.030;2023-10-09T21:28:19;23.00;22.00;17.00
55076;PMS7003;40971;44.702;11.030;2023-10-09T21:38:21;41.00;37.67;24.00
55076;PMS7003;40971;44.702;11.030;2023-10-09T21:48:25;37.50;36.38;23.25
55076;PMS7003;40971;44.702;11.030;2023-10-09T21:58:30;40.44;36.89;23.67
55076;PMS7003;40971;44.702;11.030;2023-10-09T22:08:33;38.33;37.00;26.67
55076;PMS7003;40971;44.702;11.030;2023-10-09T22:18:38;41.56;38.44;24.78
55076;PMS7003;40971;44.702;11.030;2023-10-09T22:28:43;48.50;40.75;27.00
55076;PMS7003;40971;44.702;11.030;2023-10-09T22:38:51;39.67;38.33;25.67
55076;PMS7003;40971;44.702;11.030;2023-10-09T22:48:57;46.00;40.25;27.25
55076;PMS7003;40971;44.702;11.030;2023-10-09T22:59:05;53.67;44.00;29.00
55076;PMS7003;40971;44.702;11.030;2023-10-09T23:09:23;46.75;41.00;26.00
55076;PMS7003;40971;44.702;11.030;2023-10-09T23:19:35;43.00;40.00;25.67
55076;PMS7003;40971;44.702;11.030;2023-10-09T23:29:40;38.67;37.67;24.33
55076;PMS7003;40971;44.702;11.030;2023-10-09T23:39:54;53.75;44.50;27.00
55076;PMS7003;40971;44.702;11.030;2023-10-09T23:49:57;43.67;37.00;24.33
55076;PMS7003;40971;44.702;11.030;2023-10-09T23:59:59;34.67;34.00;22.00
